TAF MNJU
METAR MNJU
MNJU 082300Z 09004KT 9999 FEW020 30/18 Q1010=
MNJU 082200Z 08006KT 9999 SCT020 31/20 Q1010=
MNJU 082100Z 08006KT 9999 SCT020 SCT080 32/21 Q1010=
MNJU 082000Z 08006KT 9999 SCT020 SCT080 32/20 Q1011=
MNJU 081900Z 09008KT 9999 BKN020 32/22 Q1011=
WC MNJU
WS MNJU
WV MNJU